sensor_id;sensor_type;location;lat;lon;timestamp;pressure;altitude;pressure_sealevel;temperature;humidity
76297;BME280;65104;52.994;6.552;2023-05-10T00:01:40;100685.34;;;12.31;100.00
76297;BME280;65104;52.994;6.552;2023-05-10T00:04:05;100684.41;;;12.26;100.00
76297;BME280;65104;52.994;6.552;2023-05-10T00:06:31;100681.00;;;12.25;100.00
76297;BME280;65104;52.994;6.552;2023-05-10T00:08:57;100676.75;;;12.30;100.00
76297;BME280;65104;52.994;6.552;2023-05-10T00:11:22;100681.91;;;12.30;100.00
76297;BME280;65104;52.994;6.552;2023-05-10T00:13:47;100675.06;;;12.32;100.00
76297;BME280;65104;52.994;6.552;2023-05-10T00:16:13;100675.00;;;12.29;100.00
76297;BME280;65104;52.994;6.552;2023-05-10T00:18:39;100674.22;;;12.33;100.00
76297;BME280;65104;52.994;6.552;2023-05-10T00:21:05;100668.19;;;12.31;100.00
76297;BME280;65104;52.994;6.552;2023-05-10T00:23:30;100674.09;;;12.23;100.00
76297;BME280;65104;52.994;6.552;2023-05-10T00:25:56;100673.28;;;12.25;100.00
76297;BME280;65104;52.994;6.552;2023-05-10T00:28:21;100672.41;;;12.28;100.00
76297;BME280;65104;52.994;6.552;2023-05-10T00:30:47;100667.28;;;12.29;100.00
76297;BME280;65104;52.994;6.552;2023-05-10T00:33:12;100669.03;;;12.30;100.00
76297;BME280;65104;52.994;6.552;2023-05-10T00:35:37;100658.66;;;12.26;100.00
76297;BME280;65104;52.994;6.552;2023-05-10T00:38:03;100659.56;;;12.29;100.00
76297;BME280;65104;52.994;6.552;2023-05-10T00:40:29;100643.28;;;12.30;100.00
76297;BME280;65104;52.994;6.552;2023-05-10T00:42:56;100656.09;;;12.27;100.00
76297;BME280;65104;52.994;6.552;2023-05-10T00:45:21;100655.25;;;12.27;100.00
76297;BME280;65104;52.994;6.552;2023-05-10T00:47:46;100651.00;;;12.30;100.00
76297;BME280;65104;52.994;6.552;2023-05-10T00:50:13;100656.09;;;12.27;100.00
76297;BME280;65104;52.994;6.552;2023-05-10T00:52:38;100655.28;;;12.30;100.00
76297;BME280;65104;52.994;6.552;2023-05-10T00:55:05;100653.53;;;12.27;100.00
76297;BME280;65104;52.994;6.552;2023-05-10T00:57:31;100661.25;;;12.27;100.00
76297;BME280;65104;52.994;6.552;2023-05-10T00:59:57;100653.50;;;12.26;100.00
76297;BME280;65104;52.994;6.552;2023-05-10T01:02:23;100662.13;;;12.25;100.00
76297;BME280;65104;52.994;6.552;2023-05-10T01:04:49;100663.00;;;12.28;100.00
76297;BME280;65104;52.994;6.552;2023-05-10T01:07:15;100657.84;;;12.25;100.00
76297;BME280;65104;52.994;6.552;2023-05-10T01:09:40;100654.38;;;12.23;100.00
76297;BME280;65104;52.994;6.552;2023-05-10T01:12:06;100656.13;;;12.29;100.00
76297;BME280;65104;52.994;6.552;2023-05-10T01:14:32;100658.75;;;12.32;100.00
76297;BME280;65104;52.994;6.552;2023-05-10T01:16:59;100662.09;;;12.26;100.00
76297;BME280;65104;52.994;6.552;2023-05-10T01:19:27;100663.84;;;12.27;100.00
76297;BME280;65104;52.994;6.552;2023-05-10T01:22:57;100661.25;;;12.27;100.00
76297;BME280;65104;52.994;6.552;2023-05-10T01:33:54;100656.81;;;12.11;100.00
76297;BME280;65104;52.994;6.552;2023-05-10T01:36:40;100659.44;;;12.17;100.00
76297;BME280;65104;52.994;6.552;2023-05-10T01:40:16;100667.13;;;12.11;100.00
76297;BME280;65104;52.994;6.552;2023-05-10T01:42:27;100671.47;;;12.15;100.00
76297;BME280;65104;52.994;6.552;2023-05-10T01:45:02;100657.75;;;12.18;100.00
76297;BME280;65104;52.994;6.552;2023-05-10T01:47:37;100663.75;;;12.17;100.00
76297;BME280;65104;52.994;6.552;2023-05-10T01:50:07;100661.16;;;12.15;100.00
76297;BME280;65104;52.994;6.552;2023-05-10T01:52:41;100656.03;;;12.20;100.00
76297;BME280;65104;52.994;6.552;2023-05-10T01:55:14;100665.38;;;12.10;100.00
76297;BME280;65104;52.994;6.552;2023-05-10T01:57:42;100661.13;;;12.12;100.00
76297;BME280;65104;52.994;6.552;2023-05-10T02:00:09;100661.09;;;12.09;100.00
76297;BME280;65104;52.994;6.552;2023-05-10T02:02:41;100661.16;;;12.14;100.00
76297;BME280;65104;52.994;6.552;2023-05-10T02:05:08;100659.38;;;12.10;100.00
76297;BME280;65104;52.994;6.552;2023-05-10T02:07:35;100665.34;;;12.04;100.00
76297;BME280;65104;52.994;6.552;2023-05-10T02:10:02;100669.69;;;12.11;100.00
76297;BME280;65104;52.994;6.552;2023-05-10T02:12:31;100662.81;;;12.07;100.00
76297;BME280;65104;52.994;6.552;2023-05-10T02:14:59;100666.22;;;12.06;100.00
76297;BME280;65104;52.994;6.552;2023-05-10T02:17:26;100665.41;;;12.12;100.00
76297;BME280;65104;52.994;6.552;2023-05-10T02:19:53;100666.22;;;12.06;100.00
76297;BME280;65104;52.994;6.552;2023-05-10T02:22:20;100672.22;;;12.05;100.00
76297;BME280;65104;52.994;6.552;2023-05-10T02:24:46;100668.81;;;12.06;100.00
76297;BME280;65104;52.994;6.552;2023-05-10T02:27:14;100674.84;;;12.11;100.00
76297;BME280;65104;52.994;6.552;2023-05-10T02:29:41;100668.81;;;12.11;100.00
76297;BME280;65104;52.994;6.552;2023-05-10T02:32:06;100668.78;;;12.05;100.00
76297;BME280;65104;52.994;6.552;2023-05-10T02:34:35;100666.13;;;11.97;100.00
76297;BME280;65104;52.994;6.552;2023-05-10T02:37:02;100673.91;;;12.03;100.00
76297;BME280;65104;52.994;6.552;2023-05-10T02:39:28;100667.91;;;12.04;100.00
76297;BME280;65104;52.994;6.552;2023-05-10T02:41:53;100665.31;;;12.02;100.00
76297;BME280;65104;52.994;6.552;2023-05-10T02:44:22;100673.03;;;12.01;100.00
76297;BME280;65104;52.994;6.552;2023-05-10T02:46:48;100667.06;;;12.03;100.00
76297;BME280;65104;52.994;6.552;2023-05-10T02:49:14;100664.50;;;12.08;100.00
76297;BME280;65104;52.994;6.552;2023-05-10T02:51:49;100657.66;;;12.10;100.00
76297;BME280;65104;52.994;6.552;2023-05-10T02:54:19;100668.81;;;12.06;100.00
76297;BME280;65104;52.994;6.552;2023-05-10T02:56:51;100668.72;;;11.98;100.00
76297;BME280;65104;52.994;6.552;2023-05-10T02:59:18;100657.56;;;11.98;100.00
76297;BME280;65104;52.994;6.552;2023-05-10T03:01:44;100668.72;;;11.97;100.00
76297;BME280;65104;52.994;6.552;2023-05-10T03:04:10;100664.44;;;11.97;100.00
76297;BME280;65104;52.994;6.552;2023-05-10T03:06:35;100667.00;;;11.97;100.00
76297;BME280;65104;52.994;6.552;2023-05-10T03:09:01;100664.41;;;11.99;100.00
76297;BME280;65104;52.994;6.552;2023-05-10T03:16:56;100671.28;;;11.97;100.00
76297;BME280;65104;52.994;6.552;2023-05-10T03:19:25;100670.41;;;11.95;100.00
76297;BME280;65104;52.994;6.552;2023-05-10T03:21:53;100664.38;;;11.94;100.00
76297;BME280;65104;52.994;6.552;2023-05-10T03:24:21;100674.69;;;11.94;100.00
76297;BME280;65104;52.994;6.552;2023-05-10T03:26:49;100679.91;;;12.02;100.00
76297;BME280;65104;52.994;6.552;2023-05-10T03:29:15;100682.38;;;11.90;100.00
76297;BME280;65104;52.994;6.552;2023-05-10T03:31:41;100674.63;;;11.91;100.00
76297;BME280;65104;52.994;6.552;2023-05-10T03:34:07;100676.34;;;11.91;100.00
76297;BME280;65104;52.994;6.552;2023-05-10T03:36:32;100681.50;;;11.92;100.00
76297;BME280;65104;52.994;6.552;2023-05-10T03:38:58;100679.78;;;11.90;100.00
76297;BME280;65104;52.994;6.552;2023-05-10T03:41:23;100684.09;;;11.92;100.00
76297;BME280;65104;52.994;6.552;2023-05-10T03:43:50;100682.34;;;11.88;100.00
76297;BME280;65104;52.994;6.552;2023-05-10T03:46:15;100691.72;;;11.85;100.00
76297;BME280;65104;52.994;6.552;2023-05-10T03:48:40;100692.59;;;11.85;100.00
76297;BME280;65104;52.994;6.552;2023-05-10T03:51:06;100695.97;;;11.83;100.00
76297;BME280;65104;52.994;6.552;2023-05-10T03:53:31;100693.50;;;11.89;100.00
76297;BME280;65104;52.994;6.552;2023-05-10T03:55:56;100682.25;;;11.81;100.00
76297;BME280;65104;52.994;6.552;2023-05-10T03:58:22;100683.09;;;11.81;100.00
76297;BME280;65104;52.994;6.552;2023-05-10T04:00:47;100688.22;;;11.78;100.00
76297;BME280;65104;52.994;6.552;2023-05-10T04:03:13;100683.16;;;11.86;100.00
76297;BME280;65104;52.994;6.552;2023-05-10T04:05:38;100678.81;;;11.82;100.00
76297;BME280;65104;52.994;6.552;2023-05-10T04:08:04;100690.00;;;11.84;100.00
76297;BME280;65104;52.994;6.552;2023-05-10T04:10:29;100690.81;;;11.81;100.00
76297;BME280;65104;52.994;6.552;2023-05-10T04:12:55;100684.84;;;11.84;100.00
76297;BME280;65104;52.994;6.552;2023-05-10T04:15:20;100683.09;;;11.81;100.00
76297;BME280;65104;52.994;6.552;2023-05-10T04:17:46;100688.25;;;11.83;100.00
76297;BME280;65104;52.994;6.552;2023-05-10T04:20:11;100689.22;;;11.89;100.00
76297;BME280;65104;52.994;6.552;2023-05-10T04:22:37;100688.28;;;11.84;100.00
76297;BME280;65104;52.994;6.552;2023-05-10T04:25:03;100689.09;;;11.79;100.00
76297;BME280;65104;52.994;6.552;2023-05-10T04:27:28;100697.72;;;11.84;100.00
76297;BME280;65104;52.994;6.552;2023-05-10T04:29:53;100688.25;;;11.80;100.00
76297;BME280;65104;52.994;6.552;2023-05-10T04:32:19;100692.56;;;11.81;100.00
76297;BME280;65104;52.994;6.552;2023-05-10T04:34:45;100698.53;;;11.80;100.00
76297;BME280;65104;52.994;6.552;2023-05-10T04:37:10;100700.28;;;11.81;100.00
76297;BME280;65104;52.994;6.552;2023-05-10T04:39:36;100700.28;;;11.81;100.00
76297;BME280;65104;52.994;6.552;2023-05-10T04:42:02;100695.97;;;11.83;100.00
76297;BME280;65104;52.994;6.552;2023-05-10T04:44:28;100699.41;;;11.82;100.00
76297;BME280;65104;52.994;6.552;2023-05-10T04:46:54;100696.81;;;11.82;100.00
76297;BME280;65104;52.994;6.552;2023-05-10T04:49:20;100701.91;;;11.76;100.00
76297;BME280;65104;52.994;6.552;2023-05-10T04:51:45;100704.53;;;11.82;100.00
76297;BME280;65104;52.994;6.552;2023-05-10T04:54:11;100709.63;;;11.76;100.00
76297;BME280;65104;52.994;6.552;2023-05-10T04:56:37;100709.69;;;11.82;100.00
76297;BME280;65104;52.994;6.552;2023-05-10T04:59:02;100704.59;;;11.86;100.00
76297;BME280;65104;52.994;6.552;2023-05-10T05:01:28;100712.28;;;11.80;100.00
76297;BME280;65104;52.994;6.552;2023-05-10T05:03:53;100706.25;;;11.81;100.00
76297;BME280;65104;52.994;6.552;2023-05-10T05:06:18;100717.41;;;11.82;100.00
76297;BME280;65104;52.994;6.552;2023-05-10T05:08:46;100720.81;;;11.78;100.00
76297;BME280;65104;52.994;6.552;2023-05-10T05:11:11;100720.88;;;11.84;100.00
76297;BME280;65104;52.994;6.552;2023-05-10T05:13:36;100723.41;;;11.81;100.00
76297;BME280;65104;52.994;6.552;2023-05-10T05:16:02;100722.59;;;11.85;100.00
76297;BME280;65104;52.994;6.552;2023-05-10T05:18:28;100723.47;;;11.85;100.00
76297;BME280;65104;52.994;6.552;2023-05-10T05:20:54;100715.72;;;11.81;100.00
76297;BME280;65104;52.994;6.552;2023-05-10T05:23:19;100724.38;;;11.89;100.00
76297;BME280;65104;52.994;6.552;2023-05-10T05:25:46;100718.38;;;11.88;100.00
76297;BME280;65104;52.994;6.552;2023-05-10T05:28:11;100725.16;;;11.83;100.00
76297;BME280;65104;52.994;6.552;2023-05-10T05:30:37;100722.66;;;11.88;100.00
76297;BME280;65104;52.994;6.552;2023-05-10T05:33:02;100729.53;;;11.89;100.00
76297;BME280;65104;52.994;6.552;2023-05-10T05:35:28;100725.16;;;11.85;100.00
76297;BME280;65104;52.994;6.552;2023-05-10T05:37:53;100729.53;;;11.89;100.00
76297;BME280;65104;52.994;6.552;2023-05-10T05:40:18;100735.47;;;11.86;100.00
76297;BME280;65104;52.994;6.552;2023-05-10T05:42:45;100744.09;;;11.88;100.00
76297;BME280;65104;52.994;6.552;2023-05-10T05:45:10;100747.50;;;11.87;100.00
76297;BME280;65104;52.994;6.552;2023-05-10T05:47:38;100744.91;;;11.86;100.00
76297;BME280;65104;52.994;6.552;2023-05-10T05:50:04;100750.09;;;11.90;100.00
76297;BME280;65104;52.994;6.552;2023-05-10T05:52:30;100750.09;;;11.89;100.00
76297;BME280;65104;52.994;6.552;2023-05-10T05:54:55;100748.41;;;11.89;100.00
76297;BME280;65104;52.994;6.552;2023-05-10T05:57:20;100750.13;;;11.92;100.00
76297;BME280;65104;52.994;6.552;2023-05-10T05:59:46;100760.50;;;11.98;100.00
76297;BME280;65104;52.994;6.552;2023-05-10T06:02:12;100762.13;;;11.93;100.00
76297;BME280;65104;52.994;6.552;2023-05-10T06:04:38;100754.47;;;11.96;100.00
76297;BME280;65104;52.994;6.552;2023-05-10T06:07:03;100766.38;;;11.88;100.00
76297;BME280;65104;52.994;6.552;2023-05-10T06:09:29;100762.94;;;11.87;100.00
76297;BME280;65104;52.994;6.552;2023-05-10T06:11:54;100765.53;;;11.89;100.00
76297;BME280;65104;52.994;6.552;2023-05-10T06:14:20;100768.13;;;11.92;100.00
76297;BME280;65104;52.994;6.552;2023-05-10T06:16:46;100771.56;;;11.92;100.00
76297;BME280;65104;52.994;6.552;2023-05-10T06:19:11;100767.28;;;11.93;100.00
76297;BME280;65104;52.994;6.552;2023-05-10T06:21:37;100770.75;;;11.95;100.00
76297;BME280;65104;52.994;6.552;2023-05-10T06:24:02;100773.38;;;12.01;100.00
76297;BME280;65104;52.994;6.552;2023-05-10T06:26:28;100771.69;;;12.03;100.00
76297;BME280;65104;52.994;6.552;2023-05-10T06:28:53;100788.81;;;12.01;100.00
76297;BME280;65104;52.994;6.552;2023-05-10T06:31:19;100784.56;;;12.03;100.00
76297;BME280;65104;52.994;6.552;2023-05-10T06:33:44;100791.38;;;11.99;100.00
76297;BME280;65104;52.994;6.552;2023-05-10T06:36:10;100796.53;;;11.98;100.00
76297;BME280;65104;52.994;6.552;2023-05-10T06:38:35;100795.69;;;12.00;100.00
76297;BME280;65104;52.994;6.552;2023-05-10T06:41:01;100799.16;;;12.04;100.00
76297;BME280;65104;52.994;6.552;2023-05-10T06:43:26;100800.91;;;12.08;100.00
76297;BME280;65104;52.994;6.552;2023-05-10T06:45:53;100805.22;;;12.08;100.00
76297;BME280;65104;52.994;6.552;2023-05-10T06:48:19;100818.19;;;12.15;100.00
76297;BME280;65104;52.994;6.552;2023-05-10T06:50:44;100805.28;;;12.12;100.00
76297;BME280;65104;52.994;6.552;2023-05-10T06:53:09;100812.97;;;12.11;100.00
76297;BME280;65104;52.994;6.552;2023-05-10T06:55:35;100807.03;;;12.15;100.00
76297;BME280;65104;52.994;6.552;2023-05-10T06:58:01;100803.56;;;12.13;100.00
76297;BME280;65104;52.994;6.552;2023-05-10T07:00:27;100805.22;;;12.09;100.00
76297;BME280;65104;52.994;6.552;2023-05-10T07:02:52;100808.72;;;12.14;100.00
76297;BME280;65104;52.994;6.552;2023-05-10T07:05:18;100813.06;;;12.17;100.00
76297;BME280;65104;52.994;6.552;2023-05-10T07:07:43;100810.53;;;12.23;100.00
76297;BME280;65104;52.994;6.552;2023-05-10T07:10:09;100822.56;;;12.22;100.00
76297;BME280;65104;52.994;6.552;2023-05-10T07:12:34;100827.69;;;12.22;100.00
76297;BME280;65104;52.994;6.552;2023-05-10T07:15:00;100833.75;;;12.27;100.00
76297;BME280;65104;52.994;6.552;2023-05-10T07:17:25;100830.41;;;12.33;100.00
76297;BME280;65104;52.994;6.552;2023-05-10T07:19:51;100829.59;;;12.38;100.00
76297;BME280;65104;52.994;6.552;2023-05-10T07:22:17;100834.72;;;12.34;100.00
76297;BME280;65104;52.994;6.552;2023-05-10T07:24:43;100833.88;;;12.36;100.00
76297;BME280;65104;52.994;6.552;2023-05-10T07:27:08;100833.75;;;12.27;100.00
76297;BME280;65104;52.994;6.552;2023-05-10T07:29:34;100842.59;;;12.49;100.00
76297;BME280;65104;52.994;6.552;2023-05-10T07:31:59;100838.38;;;12.56;100.00
76297;BME280;65104;52.994;6.552;2023-05-10T07:34:25;100843.41;;;12.47;100.00
76297;BME280;65104;52.994;6.552;2023-05-10T07:36:51;100838.31;;;12.53;100.00
76297;BME280;65104;52.994;6.552;2023-05-10T07:39:16;100845.31;;;12.64;100.00
76297;BME280;65104;52.994;6.552;2023-05-10T07:41:42;100840.25;;;12.69;100.00
76297;BME280;65104;52.994;6.552;2023-05-10T07:44:07;100844.63;;;12.79;100.00
76297;BME280;65104;52.994;6.552;2023-05-10T07:46:33;100859.13;;;12.68;100.00
76297;BME280;65104;52.994;6.552;2023-05-10T07:48:59;100855.78;;;12.78;100.00
76297;BME280;65104;52.994;6.552;2023-05-10T07:51:24;100855.88;;;12.89;100.00
76297;BME280;65104;52.994;6.552;2023-05-10T07:53:50;100853.31;;;12.87;100.00
76297;BME280;65104;52.994;6.552;2023-05-10T07:58:47;100856.75;;;12.91;100.00
76297;BME280;65104;52.994;6.552;2023-05-10T08:01:12;100867.81;;;12.81;100.00
76297;BME280;65104;52.994;6.552;2023-05-10T08:03:37;100868.56;;;12.67;100.00
76297;BME280;65104;52.994;6.552;2023-05-10T08:06:03;100867.66;;;12.64;100.00
76297;BME280;65104;52.994;6.552;2023-05-10T08:08:28;100873.66;;;12.64;100.00
76297;BME280;65104;52.994;6.552;2023-05-10T08:10:54;100870.25;;;12.65;100.00
76297;BME280;65104;52.994;6.552;2023-05-10T08:13:21;100882.38;;;12.74;100.00
76297;BME280;65104;52.994;6.552;2023-05-10T08:15:46;100882.25;;;12.63;100.00
76297;BME280;65104;52.994;6.552;2023-05-10T08:18:12;100892.63;;;12.68;100.00
76297;BME280;65104;52.994;6.552;2023-05-10T08:20:37;100892.63;;;12.68;100.00
76297;BME280;65104;52.994;6.552;2023-05-10T08:23:03;100885.66;;;12.62;100.00
76297;BME280;65104;52.994;6.552;2023-05-10T08:25:28;100890.63;;;12.46;100.00
76297;BME280;65104;52.994;6.552;2023-05-10T08:27:54;100889.78;;;12.47;100.00
76297;BME280;65104;52.994;6.552;2023-05-10T08:30:19;100896.72;;;12.51;100.00
76297;BME280;65104;52.994;6.552;2023-05-10T08:32:45;100896.72;;;12.51;100.00
76297;BME280;65104;52.994;6.552;2023-05-10T08:35:10;100900.22;;;12.57;100.00
76297;BME280;65104;52.994;6.552;2023-05-10T08:37:35;100905.41;;;12.62;100.00
76297;BME280;65104;52.994;6.552;2023-05-10T08:40:01;100913.91;;;12.55;100.00
76297;BME280;65104;52.994;6.552;2023-05-10T08:42:28;100915.59;;;12.53;100.00
76297;BME280;65104;52.994;6.552;2023-05-10T08:44:57;100919.00;;;12.49;100.00
76297;BME280;65104;52.994;6.552;2023-05-10T08:47:24;100922.50;;;12.55;100.00
76297;BME280;65104;52.994;6.552;2023-05-10T08:49:50;100916.66;;;12.67;100.00
76297;BME280;65104;52.994;6.552;2023-05-10T08:52:17;100916.81;;;12.84;100.00
76297;BME280;65104;52.994;6.552;2023-05-10T08:54:43;100925.47;;;12.87;100.00
76297;BME280;65104;52.994;6.552;2023-05-10T08:57:10;100918.56;;;12.85;100.00
76297;BME280;65104;52.994;6.552;2023-05-10T08:59:36;100926.47;;;13.01;100.00
76297;BME280;65104;52.994;6.552;2023-05-10T09:02:04;100926.56;;;13.10;100.00
76297;BME280;65104;52.994;6.552;2023-05-10T09:04:30;100935.09;;;13.05;100.00
76297;BME280;65104;52.994;6.552;2023-05-10T09:06:56;100932.34;;;12.90;100.00
76297;BME280;65104;52.994;6.552;2023-05-10T09:09:23;100939.22;;;12.89;100.00
76297;BME280;65104;52.994;6.552;2023-05-10T09:11:49;100941.88;;;12.95;100.00
76297;BME280;65104;52.994;6.552;2023-05-10T09:14:15;100950.53;;;13.02;100.00
76297;BME280;65104;52.994;6.552;2023-05-10T09:16:40;100952.34;;;13.10;100.00
76297;BME280;65104;52.994;6.552;2023-05-10T09:19:06;100943.84;;;13.18;100.00
76297;BME280;65104;52.994;6.552;2023-05-10T09:21:34;100943.75;;;13.11;100.00
76297;BME280;65104;52.994;6.552;2023-05-10T09:24:04;100955.09;;;13.27;100.00
76297;BME280;65104;52.994;6.552;2023-05-10T09:26:30;100958.53;;;13.23;100.00
76297;BME280;65104;52.994;6.552;2023-05-10T09:28:57;100968.72;;;13.15;100.00
76297;BME280;65104;52.994;6.552;2023-05-10T09:31:23;100967.03;;;13.18;100.00
76297;BME280;65104;52.994;6.552;2023-05-10T09:33:50;100968.75;;;13.14;100.00
76297;BME280;65104;52.994;6.552;2023-05-10T09:36:16;100970.28;;;13.01;100.00
76297;BME280;65104;52.994;6.552;2023-05-10T09:38:49;100963.41;;;13.02;100.00
76297;BME280;65104;52.994;6.552;2023-05-10T09:41:21;100962.66;;;13.10;100.00
76297;BME280;65104;52.994;6.552;2023-05-10T09:43:46;100968.97;;;13.38;100.00
76297;BME280;65104;52.994;6.552;2023-05-10T09:46:12;100975.97;;;13.51;100.00
76297;BME280;65104;52.994;6.552;2023-05-10T09:48:47;100973.41;;;13.53;100.00
76297;BME280;65104;52.994;6.552;2023-05-10T09:51:24;100969.78;;;13.33;100.00
76297;BME280;65104;52.994;6.552;2023-05-10T09:54:13;100972.41;;;13.39;100.00
76297;BME280;65104;52.994;6.552;2023-05-10T09:56:39;100972.41;;;13.37;100.00
76297;BME280;65104;52.994;6.552;2023-05-10T09:59:06;100973.19;;;13.29;100.00
76297;BME280;65104;52.994;6.552;2023-05-10T10:01:33;100978.19;;;13.17;100.00
76297;BME280;65104;52.994;6.552;2023-05-10T10:04:02;100984.97;;;13.08;100.00
76297;BME280;65104;52.994;6.552;2023-05-10T10:06:28;100984.22;;;13.17;100.00
76297;BME280;65104;52.994;6.552;2023-05-10T10:08:54;100986.97;;;13.31;100.00
76297;BME280;65104;52.994;6.552;2023-05-10T10:11:20;100990.44;;;13.36;100.00
76297;BME280;65104;52.994;6.552;2023-05-10T10:13:46;100991.53;;;13.59;100.00
76297;BME280;65104;52.994;6.552;2023-05-10T10:16:11;101002.00;;;13.77;100.00
76297;BME280;65104;52.994;6.552;2023-05-10T10:18:36;100999.59;;;14.02;100.00
76297;BME280;65104;52.994;6.552;2023-05-10T10:21:06;101006.50;;;14.01;100.00
76297;BME280;65104;52.994;6.552;2023-05-10T10:23:32;101007.38;;;14.08;100.00
76297;BME280;65104;52.994;6.552;2023-05-10T10:25:57;101008.34;;;14.19;100.00
76297;BME280;65104;52.994;6.552;2023-05-10T10:31:03;101006.69;;;14.32;100.00
76297;BME280;65104;52.994;6.552;2023-05-10T10:33:56;101021.31;;;14.28;100.00
76297;BME280;65104;52.994;6.552;2023-05-10T10:36:24;101014.47;;;14.38;100.00
76297;BME280;65104;52.994;6.552;2023-05-10T10:38:55;101002.41;;;14.31;100.00
76297;BME280;65104;52.994;6.552;2023-05-10T10:46:59;101014.38;;;14.24;100.00
76297;BME280;65104;52.994;6.552;2023-05-10T10:49:26;101015.22;;;14.23;100.00
76297;BME280;65104;52.994;6.552;2023-05-10T10:52:14;101016.88;;;14.09;100.00
76297;BME280;65104;52.994;6.552;2023-05-10T10:54:41;101022.09;;;14.18;100.00
76297;BME280;65104;52.994;6.552;2023-05-10T10:57:13;101022.19;;;14.30;100.00
76297;BME280;65104;52.994;6.552;2023-05-10T10:59:43;101015.31;;;14.31;100.00
76297;BME280;65104;52.994;6.552;2023-05-10T11:02:33;101018.75;;;14.31;100.00
76297;BME280;65104;52.994;6.552;2023-05-10T11:05:57;101015.34;;;14.38;100.00
76297;BME280;65104;52.994;6.552;2023-05-10T11:07:59;101019.78;;;14.56;100.00
76297;BME280;65104;52.994;6.552;2023-05-10T11:10:26;101021.53;;;14.63;100.00
76297;BME280;65104;52.994;6.552;2023-05-10T11:13:10;101025.84;;;14.62;100.00
76297;BME280;65104;52.994;6.552;2023-05-10T11:15:40;101029.31;;;14.69;100.00
76297;BME280;65104;52.994;6.552;2023-05-10T11:18:31;101022.47;;;14.79;100.00
76297;BME280;65104;52.994;6.552;2023-05-10T11:21:01;101026.84;;;14.92;100.00
76297;BME280;65104;52.994;6.552;2023-05-10T11:26:08;101029.41;;;14.83;100.00
76297;BME280;65104;52.994;6.552;2023-05-10T11:28:44;101038.91;;;14.90;100.00
76297;BME280;65104;52.994;6.552;2023-05-10T11:31:10;101033.75;;;14.97;100.00
76297;BME280;65104;52.994;6.552;2023-05-10T11:33:47;101044.03;;;14.82;100.00
76297;BME280;65104;52.994;6.552;2023-05-10T11:36:39;101039.63;;;14.61;100.00
76297;BME280;65104;52.994;6.552;2023-05-10T11:39:05;101041.97;;;14.28;100.00
76297;BME280;65104;52.994;6.552;2023-05-10T11:41:31;101061.78;;;14.32;100.00
76297;BME280;65104;52.994;6.552;2023-05-10T11:43:57;101056.44;;;14.06;100.00
76297;BME280;65104;52.994;6.552;2023-05-10T11:46:24;101060.78;;;14.10;100.00
76297;BME280;65104;52.994;6.552;2023-05-10T11:48:52;101064.22;;;14.09;100.00
76297;BME280;65104;52.994;6.552;2023-05-10T11:51:21;101066.69;;;13.96;100.00
76297;BME280;65104;52.994;6.552;2023-05-10T11:53:49;101056.34;;;13.93;100.00
76297;BME280;65104;52.994;6.552;2023-05-10T11:56:15;101068.41;;;13.94;100.00
76297;BME280;65104;52.994;6.552;2023-05-10T11:58:41;101070.91;;;13.89;100.00
76297;BME280;65104;52.994;6.552;2023-05-10T12:01:07;101065.84;;;13.95;100.00
76297;BME280;65104;52.994;6.552;2023-05-10T12:03:34;101071.81;;;13.93;100.00
76297;BME280;65104;52.994;6.552;2023-05-10T12:06:00;101081.34;;;14.00;100.00
76297;BME280;65104;52.994;6.552;2023-05-10T12:08:28;101080.47;;;13.98;100.00
76297;BME280;65104;52.994;6.552;2023-05-10T12:11:04;101077.09;;;14.08;100.00
76297;BME280;65104;52.994;6.552;2023-05-10T12:13:30;101076.31;;;14.13;100.00
76297;BME280;65104;52.994;6.552;2023-05-10T12:15:58;101078.03;;;14.16;100.00
76297;BME280;65104;52.994;6.552;2023-05-10T12:18:24;101079.78;;;14.18;100.00
76297;BME280;65104;52.994;6.552;2023-05-10T12:20:52;101086.69;;;14.24;100.00
76297;BME280;65104;52.994;6.552;2023-05-10T12:23:20;101087.59;;;14.26;100.00
76297;BME280;65104;52.994;6.552;2023-05-10T12:25:46;101092.81;;;14.31;100.00
76297;BME280;65104;52.994;6.552;2023-05-10T12:28:12;101103.09;;;14.26;100.00
76297;BME280;65104;52.994;6.552;2023-05-10T12:30:38;101105.69;;;14.32;100.00
76297;BME280;65104;52.994;6.552;2023-05-10T12:33:07;101097.13;;;14.35;100.00
76297;BME280;65104;52.994;6.552;2023-05-10T12:35:38;101103.25;;;14.44;100.00
76297;BME280;65104;52.994;6.552;2023-05-10T12:38:35;101102.44;;;14.51;100.00
76297;BME280;65104;52.994;6.552;2023-05-10T12:41:05;101102.53;;;14.63;100.00
76297;BME280;65104;52.994;6.552;2023-05-10T12:43:32;101105.09;;;14.62;100.00
76297;BME280;65104;52.994;6.552;2023-05-10T12:45:58;101101.75;;;14.80;100.00
76297;BME280;65104;52.994;6.552;2023-05-10T12:48:24;101107.88;;;14.95;100.00
76297;BME280;65104;52.994;6.552;2023-05-10T12:50:49;101109.63;;;14.98;100.00
76297;BME280;65104;52.994;6.552;2023-05-10T12:53:16;101110.47;;;14.97;100.00
76297;BME280;65104;52.994;6.552;2023-05-10T12:55:42;101112.19;;;14.93;100.00
76297;BME280;65104;52.994;6.552;2023-05-10T12:58:07;101110.38;;;14.76;100.00
76297;BME280;65104;52.994;6.552;2023-05-10T13:00:33;101109.50;;;14.75;100.00
76297;BME280;65104;52.994;6.552;2023-05-10T13:02:58;101120.59;;;14.57;100.00
76297;BME280;65104;52.994;6.552;2023-05-10T13:05:24;101118.78;;;14.46;100.00
76297;BME280;65104;52.994;6.552;2023-05-10T13:07:49;101124.66;;;14.33;100.00
76297;BME280;65104;52.994;6.552;2023-05-10T13:10:15;101128.97;;;14.31;100.00